DAL4741 KPHX-KSFO
Flight info
| Callsign | DAL4741 |
|---|---|
| Flight time | 1h 29m |
| Altitude | 34000 |
| Route | KEENS3 HRRBR CURIV J212 DECAS PMD AVE MAKRS SERFR SERFR4 |
| Aircraft | B739/M-SDE2E3FGHIRWXY/LB1 |
Departure
| Time | 2026-05-08 00:40 |
|---|---|
| Airport | Phoenix Sky Harbor International Airport (KPHX) |
Arrival
| Time | 2026-05-08 02:10 |
|---|---|
| Airport | San Francisco International Airport (KSFO) |
| Time | Latitude | Longitude | Altitude | Speed | Heading |
|---|---|---|---|---|---|
| 2026-05-07 23:58 | 33.43383 | -112.01130 | 1123 ft | 0 kts | 360° |
| 2026-05-07 23:58 | 33.43376 | -112.01130 | 1123 ft | 0 kts | 360° |
| 2026-05-08 00:33 | 33.43352 | -112.01130 | 1120 ft | 4 kts | 360° |
| 2026-05-08 00:33 | 33.43325 | -112.01130 | 1123 ft | 4 kts | 360° |
| 2026-05-08 00:34 | 33.43303 | -112.01130 | 1114 ft | 4 kts | 14° |
| 2026-05-08 00:34 | 33.43288 | -112.01145 | 1123 ft | 4 kts | 85° |
| 2026-05-08 00:34 | 33.43288 | -112.01173 | 1123 ft | 2 kts | 90° |
| 2026-05-08 00:34 | 33.43288 | -112.01175 | 1123 ft | 0 kts | 90° |
| 2026-05-08 00:36 | 33.43288 | -112.01166 | 1120 ft | 5 kts | 90° |
| 2026-05-08 00:36 | 33.43287 | -112.01079 | 1118 ft | 12 kts | 90° |
| 2026-05-08 00:36 | 33.43250 | -112.00998 | 1123 ft | 12 kts | 151° |
| 2026-05-08 00:37 | 33.43215 | -112.00896 | 1120 ft | 18 kts | 93° |
| 2026-05-08 00:37 | 33.43215 | -112.00742 | 1120 ft | 18 kts | 91° |
| 2026-05-08 00:37 | 33.43214 | -112.00595 | 1117 ft | 17 kts | 90° |
| 2026-05-08 00:38 | 33.43214 | -112.00292 | 1119 ft | 18 kts | 90° |
| 2026-05-08 00:38 | 33.43215 | -112.00145 | 1117 ft | 17 kts | 86° |
| 2026-05-08 00:38 | 33.43215 | -112.00004 | 1118 ft | 17 kts | 91° |
| 2026-05-08 00:38 | 33.43213 | -111.99867 | 1119 ft | 16 kts | 90° |
| 2026-05-08 00:39 | 33.43213 | -111.99736 | 1123 ft | 15 kts | 90° |
| 2026-05-08 00:39 | 33.43214 | -111.99608 | 1123 ft | 15 kts | 90° |
| 2026-05-08 00:39 | 33.43174 | -111.99511 | 1116 ft | 17 kts | 174° |
| 2026-05-08 00:39 | 33.43104 | -111.99648 | 1123 ft | 32 kts | 268° |
| 2026-05-08 00:40 | 33.43104 | -112.00203 | 1124 ft | 101 kts | 270° |
| 2026-05-08 00:40 | 33.43106 | -112.01303 | 1122 ft | 158 kts | 270° |
| 2026-05-08 00:40 | 33.43098 | -112.02799 | 1209 ft | 194 kts | 270° |
| 2026-05-08 00:40 | 33.43078 | -112.04418 | 1914 ft | 195 kts | 271° |
| 2026-05-08 00:41 | 33.43075 | -112.06062 | 2634 ft | 199 kts | 272° |
| 2026-05-08 00:41 | 33.42965 | -112.07740 | 3151 ft | 213 kts | 256° |
| 2026-05-08 00:41 | 33.42418 | -112.09468 | 3480 ft | 228 kts | 249° |
| 2026-05-08 00:41 | 33.41802 | -112.11274 | 3942 ft | 236 kts | 249° |
| 2026-05-08 00:42 | 33.41172 | -112.13158 | 4328 ft | 253 kts | 250° |
| 2026-05-08 00:42 | 33.40530 | -112.15203 | 4788 ft | 268 kts | 249° |
| 2026-05-08 00:42 | 33.39869 | -112.17273 | 5665 ft | 265 kts | 249° |
| 2026-05-08 00:42 | 33.39217 | -112.19383 | 6218 ft | 278 kts | 255° |
| 2026-05-08 00:43 | 33.39120 | -112.21701 | 6897 ft | 282 kts | 278° |
| 2026-05-08 00:43 | 33.39474 | -112.23966 | 7867 ft | 275 kts | 281° |
| 2026-05-08 00:43 | 33.39855 | -112.26256 | 8409 ft | 284 kts | 281° |
| 2026-05-08 00:43 | 33.40262 | -112.28608 | 8999 ft | 290 kts | 281° |
| 2026-05-08 00:44 | 33.40657 | -112.30983 | 9718 ft | 292 kts | 280° |
| 2026-05-08 00:44 | 33.41041 | -112.33384 | 10342 ft | 298 kts | 280° |
| 2026-05-08 00:44 | 33.41435 | -112.35913 | 10513 ft | 319 kts | 280° |
| 2026-05-08 00:44 | 33.41839 | -112.38613 | 10660 ft | 338 kts | 280° |
| 2026-05-08 00:45 | 33.42256 | -112.41434 | 11080 ft | 348 kts | 281° |
| 2026-05-08 00:45 | 33.42688 | -112.44302 | 11699 ft | 351 kts | 282° |
| 2026-05-08 00:45 | 33.43147 | -112.47185 | 12339 ft | 355 kts | 281° |
| 2026-05-08 00:45 | 33.43572 | -112.50110 | 12996 ft | 358 kts | 280° |
| 2026-05-08 00:46 | 33.44006 | -112.53058 | 13685 ft | 361 kts | 281° |
| 2026-05-08 00:46 | 33.44443 | -112.56029 | 14203 ft | 365 kts | 282° |
| 2026-05-08 00:46 | 33.44877 | -112.59064 | 14835 ft | 370 kts | 281° |
| 2026-05-08 00:46 | 33.45192 | -112.62139 | 15469 ft | 377 kts | 275° |
| 2026-05-08 00:47 | 33.45234 | -112.65291 | 16129 ft | 380 kts | 271° |
| 2026-05-08 00:47 | 33.45184 | -112.68475 | 16662 ft | 385 kts | 271° |
| 2026-05-08 00:47 | 33.45174 | -112.71697 | 17167 ft | 389 kts | 272° |
| 2026-05-08 00:47 | 33.45202 | -112.74956 | 17695 ft | 393 kts | 273° |
| 2026-05-08 00:48 | 33.45243 | -112.78249 | 18224 ft | 398 kts | 273° |
| 2026-05-08 00:48 | 33.45420 | -112.81561 | 18783 ft | 399 kts | 282° |
| 2026-05-08 00:48 | 33.45966 | -112.84820 | 19376 ft | 400 kts | 286° |
| 2026-05-08 00:48 | 33.46615 | -112.88077 | 19849 ft | 404 kts | 287° |
| 2026-05-08 00:49 | 33.47297 | -112.91372 | 20319 ft | 409 kts | 287° |
| 2026-05-08 00:49 | 33.47966 | -112.94689 | 20855 ft | 411 kts | 287° |
| 2026-05-08 00:49 | 33.48622 | -112.98044 | 21246 ft | 417 kts | 286° |
| 2026-05-08 00:49 | 33.49276 | -113.01443 | 21674 ft | 420 kts | 286° |
| 2026-05-08 00:50 | 33.49935 | -113.04905 | 22192 ft | 421 kts | 285° |
| 2026-05-08 00:50 | 33.50577 | -113.08344 | 22644 ft | 423 kts | 286° |
| 2026-05-08 00:50 | 33.51229 | -113.11806 | 22967 ft | 429 kts | 286° |
| 2026-05-08 00:50 | 33.51884 | -113.15304 | 23347 ft | 432 kts | 285° |
| 2026-05-08 00:51 | 33.52526 | -113.18829 | 23773 ft | 434 kts | 286° |
| 2026-05-08 00:51 | 33.53164 | -113.22376 | 24217 ft | 436 kts | 286° |
| 2026-05-08 00:51 | 33.53814 | -113.25933 | 24628 ft | 438 kts | 286° |
| 2026-05-08 00:51 | 33.54479 | -113.29507 | 25042 ft | 440 kts | 286° |
| 2026-05-08 00:52 | 33.54932 | -113.31930 | 25311 ft | 442 kts | 286° |
| 2026-05-08 00:52 | 33.55593 | -113.35542 | 25706 ft | 446 kts | 287° |
| 2026-05-08 00:52 | 33.56256 | -113.39171 | 26144 ft | 445 kts | 286° |
| 2026-05-08 00:52 | 33.56913 | -113.42807 | 26492 ft | 449 kts | 286° |
| 2026-05-08 00:53 | 33.57576 | -113.46478 | 26870 ft | 451 kts | 286° |
| 2026-05-08 00:53 | 33.58247 | -113.50152 | 27233 ft | 452 kts | 287° |
| 2026-05-08 00:53 | 33.58932 | -113.53839 | 27582 ft | 454 kts | 287° |
| 2026-05-08 00:53 | 33.59622 | -113.57542 | 27928 ft | 456 kts | 287° |
| 2026-05-08 00:54 | 33.60311 | -113.61259 | 28226 ft | 459 kts | 287° |
| 2026-05-08 00:54 | 33.61009 | -113.65005 | 28555 ft | 460 kts | 287° |
| 2026-05-08 00:54 | 33.61707 | -113.68758 | 28901 ft | 462 kts | 287° |
| 2026-05-08 00:54 | 33.62405 | -113.72519 | 29287 ft | 460 kts | 287° |
| 2026-05-08 00:55 | 33.63102 | -113.76267 | 29659 ft | 461 kts | 287° |
| 2026-05-08 00:55 | 33.63796 | -113.80019 | 30072 ft | 460 kts | 287° |
| 2026-05-08 00:55 | 33.64485 | -113.83756 | 30517 ft | 458 kts | 287° |
| 2026-05-08 00:55 | 33.65174 | -113.87489 | 30995 ft | 455 kts | 287° |
| 2026-05-08 00:56 | 33.65854 | -113.91195 | 31361 ft | 455 kts | 287° |
| 2026-05-08 00:56 | 33.66537 | -113.94913 | 31642 ft | 456 kts | 287° |
| 2026-05-08 00:56 | 33.67200 | -113.98637 | 31993 ft | 456 kts | 287° |
| 2026-05-08 00:56 | 33.67901 | -114.02342 | 32383 ft | 454 kts | 288° |
| 2026-05-08 00:57 | 33.68595 | -114.06040 | 32750 ft | 454 kts | 287° |
| 2026-05-08 00:57 | 33.69265 | -114.09740 | 33077 ft | 453 kts | 287° |
| 2026-05-08 00:57 | 33.69930 | -114.13428 | 33402 ft | 451 kts | 287° |
| 2026-05-08 00:57 | 33.70598 | -114.17112 | 33634 ft | 452 kts | 287° |
| 2026-05-08 00:58 | 33.71267 | -114.20810 | 33825 ft | 453 kts | 287° |
| 2026-05-08 00:58 | 33.72620 | -114.28193 | 33859 ft | 453 kts | 288° |
| 2026-05-08 00:59 | 33.73956 | -114.35621 | 33865 ft | 458 kts | 287° |
| 2026-05-08 00:59 | 33.75331 | -114.43209 | 33849 ft | 465 kts | 287° |
| 2026-05-08 01:00 | 33.76680 | -114.50882 | 33855 ft | 472 kts | 286° |
| 2026-05-08 01:00 | 33.77740 | -114.58761 | 33854 ft | 484 kts | 279° |
| 2026-05-08 01:01 | 33.78138 | -114.66894 | 33846 ft | 491 kts | 277° |
| 2026-05-08 01:01 | 33.78525 | -114.75082 | 33830 ft | 490 kts | 278° |
| 2026-05-08 01:02 | 33.78970 | -114.83228 | 33835 ft | 487 kts | 278° |
| 2026-05-08 01:02 | 33.79436 | -114.91341 | 33831 ft | 486 kts | 278° |
| 2026-05-08 01:03 | 33.79887 | -114.99426 | 33852 ft | 485 kts | 278° |
| 2026-05-08 01:03 | 33.80350 | -115.07576 | 33862 ft | 486 kts | 277° |
| 2026-05-08 01:04 | 33.80772 | -115.15696 | 33850 ft | 487 kts | 278° |
| 2026-05-08 01:04 | 33.81231 | -115.23751 | 33869 ft | 486 kts | 278° |
| 2026-05-08 01:05 | 33.81683 | -115.31840 | 33867 ft | 488 kts | 277° |
| 2026-05-08 01:05 | 33.82042 | -115.40052 | 33864 ft | 490 kts | 278° |
| 2026-05-08 01:06 | 33.83046 | -115.48037 | 33872 ft | 480 kts | 292° |
| 2026-05-08 01:06 | 33.85408 | -115.55492 | 33866 ft | 477 kts | 296° |
| 2026-05-08 01:07 | 33.87865 | -115.62883 | 33867 ft | 475 kts | 296° |
| 2026-05-08 01:07 | 33.90273 | -115.70269 | 33887 ft | 474 kts | 296° |
| 2026-05-08 01:08 | 33.92670 | -115.77683 | 33889 ft | 475 kts | 295° |
| 2026-05-08 01:08 | 33.95042 | -115.85105 | 33897 ft | 475 kts | 295° |
| 2026-05-08 01:09 | 33.97401 | -115.92530 | 33889 ft | 474 kts | 295° |
| 2026-05-08 01:09 | 33.99773 | -115.99951 | 33898 ft | 475 kts | 295° |
| 2026-05-08 01:10 | 34.02138 | -116.07400 | 33927 ft | 476 kts | 295° |
| 2026-05-08 01:10 | 34.04497 | -116.14846 | 33931 ft | 476 kts | 295° |
| 2026-05-08 01:11 | 34.06852 | -116.22311 | 33953 ft | 477 kts | 295° |
| 2026-05-08 01:11 | 34.09271 | -116.29746 | 33924 ft | 477 kts | 296° |
| 2026-05-08 01:12 | 34.11597 | -116.37205 | 33969 ft | 475 kts | 294° |
| 2026-05-08 01:12 | 34.13888 | -116.44688 | 33974 ft | 476 kts | 295° |
| 2026-05-08 01:13 | 34.16209 | -116.52162 | 34006 ft | 475 kts | 295° |
| 2026-05-08 01:13 | 34.18543 | -116.59629 | 34073 ft | 474 kts | 295° |
| 2026-05-08 01:14 | 34.20859 | -116.67086 | 34135 ft | 473 kts | 294° |
| 2026-05-08 01:14 | 34.23190 | -116.74508 | 34189 ft | 472 kts | 294° |
| 2026-05-08 01:15 | 34.25481 | -116.81934 | 34232 ft | 471 kts | 294° |
| 2026-05-08 01:15 | 34.27756 | -116.89349 | 34249 ft | 469 kts | 294° |
| 2026-05-08 01:16 | 34.30077 | -116.96715 | 34243 ft | 470 kts | 294° |
| 2026-05-08 01:16 | 34.32321 | -117.04148 | 34191 ft | 471 kts | 294° |
| 2026-05-08 01:17 | 34.34593 | -117.11585 | 34128 ft | 472 kts | 294° |
| 2026-05-08 01:17 | 34.36886 | -117.18997 | 34106 ft | 468 kts | 293° |
| 2026-05-08 01:18 | 34.39107 | -117.26378 | 34071 ft | 470 kts | 292° |
| 2026-05-08 01:18 | 34.41331 | -117.33839 | 34029 ft | 472 kts | 293° |
| 2026-05-08 01:19 | 34.43615 | -117.41262 | 34026 ft | 470 kts | 294° |
| 2026-05-08 01:19 | 34.45866 | -117.48687 | 34003 ft | 469 kts | 293° |
| 2026-05-08 01:20 | 34.48079 | -117.56114 | 34016 ft | 469 kts | 293° |
| 2026-05-08 01:20 | 34.50321 | -117.63520 | 34020 ft | 466 kts | 293° |
| 2026-05-08 01:21 | 34.52552 | -117.70883 | 34026 ft | 465 kts | 293° |
| 2026-05-08 01:21 | 34.54764 | -117.78274 | 34022 ft | 466 kts | 292° |
| 2026-05-08 01:22 | 34.56969 | -117.85707 | 34029 ft | 471 kts | 293° |
| 2026-05-08 01:22 | 34.59229 | -117.93150 | 34007 ft | 470 kts | 293° |
| 2026-05-08 01:23 | 34.61434 | -118.00621 | 34013 ft | 470 kts | 292° |
| 2026-05-08 01:23 | 34.63879 | -118.08011 | 34020 ft | 467 kts | 302° |
| 2026-05-08 01:24 | 34.67441 | -118.14543 | 34027 ft | 463 kts | 307° |
| 2026-05-08 01:24 | 34.71063 | -118.21019 | 34026 ft | 464 kts | 307° |
| 2026-05-08 01:25 | 34.74641 | -118.27549 | 34017 ft | 465 kts | 306° |
| 2026-05-08 01:25 | 34.78194 | -118.34121 | 34026 ft | 466 kts | 306° |
| 2026-05-08 01:26 | 34.81724 | -118.40640 | 34049 ft | 463 kts | 306° |
| 2026-05-08 01:26 | 34.85302 | -118.47207 | 34086 ft | 462 kts | 306° |
| 2026-05-08 01:27 | 34.88810 | -118.53781 | 34120 ft | 464 kts | 306° |
| 2026-05-08 01:27 | 34.91769 | -118.59219 | 34131 ft | 464 kts | 305° |
| 2026-05-08 01:28 | 34.95299 | -118.65817 | 34144 ft | 465 kts | 305° |
| 2026-05-08 01:28 | 34.98806 | -118.72437 | 34145 ft | 466 kts | 304° |
| 2026-05-08 01:29 | 35.02335 | -118.79075 | 34139 ft | 467 kts | 305° |
| 2026-05-08 01:29 | 35.05888 | -118.85718 | 34133 ft | 468 kts | 305° |
| 2026-05-08 01:30 | 35.09429 | -118.92363 | 34123 ft | 467 kts | 304° |
| 2026-05-08 01:30 | 35.12988 | -118.98992 | 34098 ft | 468 kts | 304° |
| 2026-05-08 01:31 | 35.16502 | -119.05663 | 34059 ft | 467 kts | 304° |
| 2026-05-08 01:31 | 35.20023 | -119.12336 | 34028 ft | 467 kts | 304° |
| 2026-05-08 01:32 | 35.23537 | -119.19017 | 34028 ft | 467 kts | 304° |
| 2026-05-08 01:32 | 35.27066 | -119.25688 | 34013 ft | 468 kts | 304° |
| 2026-05-08 01:33 | 35.30589 | -119.32359 | 34005 ft | 466 kts | 304° |
| 2026-05-08 01:33 | 35.34106 | -119.39046 | 34023 ft | 468 kts | 304° |
| 2026-05-08 01:34 | 35.37634 | -119.45734 | 34020 ft | 467 kts | 304° |
| 2026-05-08 01:34 | 35.41166 | -119.52415 | 34040 ft | 466 kts | 304° |
| 2026-05-08 01:35 | 35.44625 | -119.59123 | 34022 ft | 467 kts | 303° |
| 2026-05-08 01:35 | 35.48102 | -119.65839 | 34020 ft | 466 kts | 303° |
| 2026-05-08 01:36 | 35.51615 | -119.72540 | 34027 ft | 467 kts | 303° |
| 2026-05-08 01:36 | 35.55074 | -119.79269 | 34010 ft | 467 kts | 303° |
| 2026-05-08 01:37 | 35.58562 | -119.85987 | 34014 ft | 467 kts | 303° |
| 2026-05-08 01:37 | 35.62042 | -119.92729 | 34010 ft | 469 kts | 303° |
| 2026-05-08 01:38 | 35.64730 | -119.99936 | 34029 ft | 469 kts | 287° |
| 2026-05-08 01:38 | 35.65789 | -120.07821 | 34050 ft | 468 kts | 277° |
| 2026-05-08 01:39 | 35.66484 | -120.15782 | 34044 ft | 468 kts | 277° |
| 2026-05-08 01:39 | 35.67234 | -120.23827 | 34046 ft | 471 kts | 278° |
| 2026-05-08 01:40 | 35.68049 | -120.31799 | 34028 ft | 470 kts | 279° |
| 2026-05-08 01:40 | 35.70035 | -120.39403 | 34049 ft | 467 kts | 297° |
| 2026-05-08 01:41 | 35.72855 | -120.46600 | 34049 ft | 467 kts | 297° |
| 2026-05-08 01:41 | 35.75635 | -120.53804 | 34044 ft | 466 kts | 296° |
| 2026-05-08 01:42 | 35.78445 | -120.61023 | 34058 ft | 468 kts | 296° |
| 2026-05-08 01:42 | 35.81226 | -120.68302 | 34050 ft | 470 kts | 296° |
| 2026-05-08 01:43 | 35.83976 | -120.75600 | 34045 ft | 469 kts | 296° |
| 2026-05-08 01:43 | 35.86746 | -120.82879 | 34037 ft | 469 kts | 296° |
| 2026-05-08 01:44 | 35.89510 | -120.90162 | 34044 ft | 468 kts | 295° |
| 2026-05-08 01:44 | 35.92252 | -120.97419 | 34046 ft | 465 kts | 296° |
| 2026-05-08 01:45 | 35.94931 | -121.04684 | 34061 ft | 465 kts | 295° |
| 2026-05-08 01:45 | 35.97699 | -121.12013 | 33680 ft | 474 kts | 295° |
| 2026-05-08 01:45 | 35.99094 | -121.15710 | 33243 ft | 476 kts | 295° |
| 2026-05-08 01:46 | 36.00491 | -121.19403 | 32704 ft | 474 kts | 295° |
| 2026-05-08 01:46 | 36.01863 | -121.23091 | 32193 ft | 471 kts | 294° |
| 2026-05-08 01:46 | 36.03224 | -121.26779 | 31671 ft | 473 kts | 295° |
| 2026-05-08 01:46 | 36.04602 | -121.30482 | 31168 ft | 475 kts | 295° |
| 2026-05-08 01:47 | 36.06034 | -121.34165 | 30607 ft | 477 kts | 301° |
| 2026-05-08 01:47 | 36.08060 | -121.37326 | 30073 ft | 477 kts | 317° |
| 2026-05-08 01:47 | 36.10732 | -121.39759 | 29501 ft | 478 kts | 328° |
| 2026-05-08 01:48 | 36.16422 | -121.44060 | 28401 ft | 480 kts | 329° |
| 2026-05-08 01:48 | 36.19266 | -121.46218 | 27848 ft | 480 kts | 328° |
| 2026-05-08 01:48 | 36.22119 | -121.48394 | 27302 ft | 482 kts | 328° |
| 2026-05-08 01:48 | 36.24971 | -121.50596 | 26758 ft | 483 kts | 328° |
| 2026-05-08 01:49 | 36.27823 | -121.52831 | 26218 ft | 486 kts | 328° |
| 2026-05-08 01:49 | 36.30652 | -121.55057 | 25651 ft | 474 kts | 328° |
| 2026-05-08 01:49 | 36.33390 | -121.57215 | 25111 ft | 458 kts | 328° |
| 2026-05-08 01:49 | 36.36039 | -121.59301 | 24602 ft | 444 kts | 328° |
| 2026-05-08 01:50 | 36.38624 | -121.61322 | 24103 ft | 431 kts | 328° |
| 2026-05-08 01:50 | 36.41120 | -121.63287 | 23630 ft | 419 kts | 328° |
| 2026-05-08 01:50 | 36.43567 | -121.65238 | 23156 ft | 406 kts | 327° |
| 2026-05-08 01:50 | 36.45903 | -121.67083 | 22708 ft | 391 kts | 328° |
| 2026-05-08 01:51 | 36.48171 | -121.68850 | 22275 ft | 379 kts | 328° |
| 2026-05-08 01:51 | 36.50366 | -121.70577 | 21848 ft | 368 kts | 328° |
| 2026-05-08 01:51 | 36.52502 | -121.72261 | 21426 ft | 359 kts | 328° |
| 2026-05-08 01:51 | 36.54585 | -121.73898 | 21021 ft | 350 kts | 328° |
| 2026-05-08 01:52 | 36.56584 | -121.75480 | 20640 ft | 339 kts | 328° |
| 2026-05-08 01:52 | 36.58560 | -121.77019 | 20417 ft | 325 kts | 327° |
| 2026-05-08 01:52 | 36.60456 | -121.78543 | 19944 ft | 322 kts | 327° |
| 2026-05-08 01:52 | 36.62325 | -121.80034 | 19570 ft | 319 kts | 328° |
| 2026-05-08 01:53 | 36.64193 | -121.81513 | 19204 ft | 317 kts | 328° |
| 2026-05-08 01:53 | 36.66048 | -121.82987 | 18831 ft | 315 kts | 327° |
| 2026-05-08 01:53 | 36.67891 | -121.84455 | 18469 ft | 315 kts | 328° |
| 2026-05-08 01:53 | 36.69739 | -121.85918 | 18099 ft | 315 kts | 328° |
| 2026-05-08 01:54 | 36.71585 | -121.87384 | 17743 ft | 314 kts | 328° |
| 2026-05-08 01:54 | 36.73423 | -121.88837 | 17375 ft | 313 kts | 329° |
| 2026-05-08 01:54 | 36.75413 | -121.89879 | 17016 ft | 310 kts | 346° |
| 2026-05-08 01:54 | 36.77517 | -121.90459 | 16590 ft | 311 kts | 348° |
| 2026-05-08 01:55 | 36.79628 | -121.91013 | 16235 ft | 311 kts | 348° |
| 2026-05-08 01:55 | 36.81740 | -121.91570 | 15864 ft | 310 kts | 347° |
| 2026-05-08 01:55 | 36.83843 | -121.92133 | 15501 ft | 309 kts | 348° |
| 2026-05-08 01:55 | 36.85943 | -121.92689 | 15125 ft | 307 kts | 347° |
| 2026-05-08 01:56 | 36.88023 | -121.93284 | 14772 ft | 307 kts | 345° |
| 2026-05-08 01:56 | 36.90094 | -121.93851 | 14410 ft | 304 kts | 344° |
| 2026-05-08 01:56 | 36.92138 | -121.94508 | 14047 ft | 301 kts | 346° |
| 2026-05-08 01:56 | 36.94193 | -121.94995 | 13697 ft | 302 kts | 347° |
| 2026-05-08 01:57 | 36.96214 | -121.95565 | 13328 ft | 296 kts | 345° |
| 2026-05-08 01:57 | 36.98216 | -121.96400 | 12978 ft | 300 kts | 340° |
| 2026-05-08 01:57 | 37.00201 | -121.97197 | 12631 ft | 297 kts | 343° |
| 2026-05-08 01:57 | 37.02180 | -121.97957 | 12270 ft | 297 kts | 342° |
| 2026-05-08 01:58 | 37.04148 | -121.98740 | 11921 ft | 296 kts | 341° |
| 2026-05-08 01:58 | 37.06108 | -121.99524 | 11564 ft | 295 kts | 341° |
| 2026-05-08 01:58 | 37.08058 | -122.00305 | 11223 ft | 293 kts | 341° |
| 2026-05-08 01:58 | 37.09998 | -122.01076 | 10873 ft | 292 kts | 341° |
| 2026-05-08 01:59 | 37.11934 | -122.01840 | 10530 ft | 290 kts | 341° |
| 2026-05-08 01:59 | 37.13847 | -122.02592 | 10207 ft | 288 kts | 341° |
| 2026-05-08 01:59 | 37.15735 | -122.03348 | 10024 ft | 281 kts | 342° |
| 2026-05-08 01:59 | 37.17604 | -122.04066 | 9683 ft | 282 kts | 342° |
| 2026-05-08 02:00 | 37.19486 | -122.04781 | 9370 ft | 283 kts | 341° |
| 2026-05-08 02:00 | 37.21362 | -122.05521 | 9057 ft | 282 kts | 341° |
| 2026-05-08 02:00 | 37.23229 | -122.06258 | 8712 ft | 281 kts | 340° |
| 2026-05-08 02:00 | 37.24879 | -122.07478 | 8349 ft | 274 kts | 310° |
| 2026-05-08 02:01 | 37.26035 | -122.09347 | 8116 ft | 268 kts | 306° |
| 2026-05-08 02:01 | 37.27146 | -122.11210 | 8006 ft | 263 kts | 306° |
| 2026-05-08 02:01 | 37.28255 | -122.13076 | 7625 ft | 268 kts | 306° |
| 2026-05-08 02:01 | 37.29371 | -122.14943 | 7393 ft | 268 kts | 306° |
| 2026-05-08 02:02 | 37.30488 | -122.16813 | 7259 ft | 265 kts | 306° |
| 2026-05-08 02:02 | 37.31580 | -122.18653 | 7150 ft | 261 kts | 306° |
| 2026-05-08 02:02 | 37.32665 | -122.20503 | 6859 ft | 265 kts | 306° |
| 2026-05-08 02:02 | 37.33767 | -122.22371 | 6614 ft | 267 kts | 306° |
| 2026-05-08 02:03 | 37.34878 | -122.24253 | 6368 ft | 268 kts | 307° |
| 2026-05-08 02:03 | 37.36019 | -122.26165 | 5818 ft | 277 kts | 305° |
| 2026-05-08 02:03 | 37.37114 | -122.28070 | 5638 ft | 261 kts | 306° |
| 2026-05-08 02:03 | 37.38185 | -122.29893 | 5385 ft | 259 kts | 306° |
| 2026-05-08 02:04 | 37.38904 | -122.31122 | 5231 ft | 257 kts | 306° |
| 2026-05-08 02:04 | 37.39939 | -122.32903 | 4981 ft | 253 kts | 306° |
| 2026-05-08 02:04 | 37.40954 | -122.34646 | 4775 ft | 242 kts | 306° |
| 2026-05-08 02:04 | 37.41927 | -122.36328 | 4520 ft | 234 kts | 306° |
| 2026-05-08 02:05 | 37.42888 | -122.38012 | 3888 ft | 238 kts | 306° |
| 2026-05-08 02:05 | 37.43850 | -122.39691 | 3361 ft | 232 kts | 306° |
| 2026-05-08 02:05 | 37.44742 | -122.41259 | 3167 ft | 211 kts | 306° |
| 2026-05-08 02:05 | 37.45567 | -122.42724 | 3043 ft | 203 kts | 306° |
| 2026-05-08 02:06 | 37.46386 | -122.44188 | 2979 ft | 204 kts | 306° |
| 2026-05-08 02:06 | 37.47217 | -122.45637 | 2848 ft | 202 kts | 308° |
| 2026-05-08 02:06 | 37.48218 | -122.46807 | 2822 ft | 200 kts | 340° |
| 2026-05-08 02:06 | 37.49490 | -122.46824 | 3013 ft | 173 kts | 19° |
| 2026-05-08 02:07 | 37.50516 | -122.45970 | 2946 ft | 185 kts | 41° |
| 2026-05-08 02:07 | 37.51471 | -122.44755 | 2839 ft | 196 kts | 44° |
| 2026-05-08 02:07 | 37.52395 | -122.43580 | 2557 ft | 181 kts | 36° |
| 2026-05-08 02:07 | 37.53442 | -122.42830 | 2298 ft | 164 kts | 25° |
| 2026-05-08 02:08 | 37.54448 | -122.42184 | 1977 ft | 164 kts | 26° |
| 2026-05-08 02:08 | 37.55442 | -122.41497 | 1682 ft | 164 kts | 28° |
| 2026-05-08 02:08 | 37.56464 | -122.40815 | 1363 ft | 172 kts | 24° |
| 2026-05-08 02:08 | 37.57569 | -122.40117 | 1037 ft | 181 kts | 28° |
| 2026-05-08 02:09 | 37.58686 | -122.39374 | 604 ft | 182 kts | 19° |
| 2026-05-08 02:09 | 37.59819 | -122.38627 | 336 ft | 182 kts | 21° |
| 2026-05-08 02:09 | 37.60907 | -122.37919 | 54 ft | 172 kts | 24° |
| 2026-05-08 02:09 | 37.61894 | -122.37254 | 17 ft | 145 kts | 28° |
| 2026-05-08 02:10 | 37.62556 | -122.36832 | 18 ft | 58 kts | 29° |
| 2026-05-08 02:10 | 37.62707 | -122.36690 | 18 ft | 17 kts | 93° |
| 2026-05-08 02:10 | 37.62639 | -122.36588 | 21 ft | 16 kts | 187° |
| 2026-05-08 02:10 | 37.62541 | -122.36648 | 18 ft | 16 kts | 211° |
| 2026-05-08 02:11 | 37.62446 | -122.36710 | 18 ft | 15 kts | 208° |
| 2026-05-08 02:11 | 37.62356 | -122.36769 | 18 ft | 14 kts | 209° |
| 2026-05-08 02:11 | 37.62257 | -122.36835 | 15 ft | 18 kts | 206° |
| 2026-05-08 02:11 | 37.62146 | -122.36907 | 14 ft | 18 kts | 199° |
| 2026-05-08 02:12 | 37.62041 | -122.36978 | 14 ft | 17 kts | 209° |
| 2026-05-08 02:12 | 37.61937 | -122.37046 | 14 ft | 16 kts | 208° |
| 2026-05-08 02:12 | 37.61828 | -122.37117 | 18 ft | 18 kts | 207° |
| 2026-05-08 02:12 | 37.61718 | -122.37190 | 19 ft | 17 kts | 208° |
| 2026-05-08 02:13 | 37.61613 | -122.37261 | 22 ft | 17 kts | 201° |
| 2026-05-08 02:13 | 37.61536 | -122.37320 | 22 ft | 11 kts | 197° |
| 2026-05-08 02:13 | 37.61462 | -122.37363 | 21 ft | 14 kts | 208° |
| 2026-05-08 02:13 | 37.61376 | -122.37418 | 21 ft | 14 kts | 207° |
| 2026-05-08 02:14 | 37.61294 | -122.37473 | 21 ft | 13 kts | 208° |
| 2026-05-08 02:14 | 37.61230 | -122.37516 | 18 ft | 0 kts | 208° |
| 2026-05-08 02:14 | 37.61228 | -122.37517 | 18 ft | 0 kts | 208° |
| 2026-05-08 02:15 | 37.61226 | -122.37519 | 18 ft | 1 kts | 208° |
| 2026-05-08 02:18 | 37.61154 | -122.37567 | 18 ft | 15 kts | 207° |
| 2026-05-08 02:18 | 37.61070 | -122.37622 | 21 ft | 15 kts | 207° |
| 2026-05-08 02:18 | 37.60963 | -122.37693 | 19 ft | 15 kts | 207° |
| 2026-05-08 02:18 | 37.60869 | -122.37755 | 21 ft | 15 kts | 207° |
| 2026-05-08 02:19 | 37.60775 | -122.37817 | 22 ft | 10 kts | 207° |
| 2026-05-08 02:19 | 37.60745 | -122.37858 | 22 ft | 8 kts | 261° |
| 2026-05-08 02:19 | 37.60775 | -122.37953 | 22 ft | 15 kts | 297° |
| 2026-05-08 02:19 | 37.60825 | -122.38074 | 22 ft | 15 kts | 298° |
| 2026-05-08 02:20 | 37.60863 | -122.38163 | 22 ft | 13 kts | 296° |
| 2026-05-08 02:20 | 37.60877 | -122.38253 | 22 ft | 15 kts | 277° |
| 2026-05-08 02:20 | 37.60910 | -122.38349 | 20 ft | 10 kts | 299° |
| 2026-05-08 02:20 | 37.60945 | -122.38416 | 19 ft | 9 kts | 292° |
| 2026-05-08 02:21 | 37.60923 | -122.38481 | 18 ft | 4 kts | 208° |
| 2026-05-08 02:21 | 37.60881 | -122.38528 | 17 ft | 13 kts | 252° |
| 2026-05-08 02:21 | 37.60908 | -122.38616 | 17 ft | 15 kts | 298° |
| 2026-05-08 02:21 | 37.60950 | -122.38716 | 16 ft | 15 kts | 297° |
| 2026-05-08 02:22 | 37.60999 | -122.38837 | 16 ft | 15 kts | 307° |
| 2026-05-08 02:22 | 37.61074 | -122.38830 | 18 ft | 15 kts | 27° |
| 2026-05-08 02:22 | 37.61171 | -122.38765 | 17 ft | 15 kts | 27° |
| 2026-05-08 02:22 | 37.61266 | -122.38703 | 17 ft | 15 kts | 27° |
| 2026-05-08 02:23 | 37.61312 | -122.38652 | 15 ft | 11 kts | 78° |
| 2026-05-08 02:23 | 37.61326 | -122.38602 | 15 ft | 5 kts | 66° |
| 2026-05-08 02:23 | 37.61339 | -122.38565 | 15 ft | 1 kts | 66° |